Hovedside
METAR-TAF:

METAR-TAF

Lufthavner :

Linköping lufthavn

Linköping, Sverige

breddegrad: 58-24N, lengdegrad: 015-41E, høyde over havet: 52 m

Gjeldene værobservasjon

Denne rapporten ble laget for 36 minutter siden, klokken 04:20 UTC
Vind 4 kt fra Sørvest, skiftende mellom Sør og Vest-nordvest
Temperatur 15°C
Luftfuktighet 94%
Trykk 1002 hPa
Sikt 10 km eller mer
Få skyer i en høyde av 2100 ft
Spredte skyer i en høyde av 3700 ft

METAR: ESSL 210420Z 23004KT 190V300 9999 FEW021 SCT037 15/14 Q1002

Tid: 06:56 (04:56 UTC)

Varsel

Denne rapporten ble laget for 1 time og 26 minutter siden, klokken 03:30 UTC
Varsel gyldig fra 21. klokken 04 UTC til 21. klokken 12 UTC
Vind 5 kt fra Vest-sørvest
Sikt 10 km eller mer
Spredte skyer i en høyde av 1200 ft
Brutte skyer i en høyde av 2000 ft
lett regn
Midlertidig
fra 21. klokken 04 UTC til 21. klokken 12 UTC
Brutte skyer i en høyde av 1200 ft

TAF: ESSL 210330Z 2104/2112 24005KT 9999 -RA SCT012 BKN020 TEMPO 2104/2112 BKN012

Værobservasjoner og værvarsel for over 4000 flyplasser (METAR- og TAF-rapporter).

Tilgjengelige stasjoner er representert av de røde og gule prikkene på kartet.

Hold musepekeren over prikken for å se navnet på stasjonen.

Klikk så for å se værobservasjoner og -varsler.

For å forandre kartet kan du klikke på den grønne knappen med svart kryss for å zoome inn, på den grønne knappen med strek for å zoome ut, eller på de grønne pilene for å se tilstøtende kart.


METAR-TAF: